Time,TemperatureF,DewpointF,PressureIn,WindDirection,WindDirectionDegrees,WindSpeedMPH,WindSpeedGustMPH,Humidity,HourlyPrecipIn,Conditions,Clouds,dailyrainin,SolarRadiationWatts/m^2,SoftwareType,DateUTC
2013-07-25 00:01:00,72.6,67.5,29.92,NNE,17,6.0,6.0,84,0.00,,,0.00,0,Wunderground v.1.15,2013-07-25 04:01:00,
2013-07-25 00:02:00,72.3,67.5,29.92,NNE,17,8.0,8.0,85,0.00,,,0.00,0,Wunderground v.1.15,2013-07-25 04:02:00,
2013-07-25 00:04:00,72.0,67.2,29.92,North,360,5.0,8.0,85,0.00,,,0.00,0,Wunderground v.1.15,2013-07-25 04:04:00,
2013-07-25 00:07:00,71.8,67.4,29.92,NNE,17,4.0,9.0,86,0.00,,,0.00,0,Wunderground v.1.15,2013-07-25 04:07:00,
2013-07-25 00:08:00,71.7,67.6,29.92,NNE,14,2.0,9.0,87,0.00,,,0.00,0,Wunderground v.1.15,2013-07-25 04:08:00,
2013-07-25 00:13:00,71.3,67.9,29.92,NNW,347,6.0,6.0,89,0.00,,,0.00,0,Wunderground v.1.15,2013-07-25 04:13:00,
2013-07-25 00:19:00,71.0,67.6,29.92,North,350,3.0,6.0,89,0.00,,,0.00,0,Wunderground v.1.15,2013-07-25 04:19:00,
2013-07-25 00:24:00,70.9,67.8,29.91,North,360,3.0,4.0,90,0.00,,,0.00,0,Wunderground v.1.15,2013-07-25 04:24:00,
2013-07-25 00:30:00,71.1,68.0,29.91,NNW,346,4.0,4.0,90,0.00,,,0.00,0,Wunderground v.1.15,2013-07-25 04:30:00,
2013-07-25 00:36:00,71.1,68.3,29.91,NE,36,3.0,6.0,91,0.00,,,0.00,0,Wunderground v.1.15,2013-07-25 04:36:00,
2013-07-25 00:42:00,71.3,68.5,29.92,NNE,24,6.0,6.0,91,0.00,,,0.00,0,Wunderground v.1.15,2013-07-25 04:42:00,
2013-07-25 00:48:00,71.4,68.6,29.92,NE,36,6.0,7.0,91,0.00,,,0.00,0,Wunderground v.1.15,2013-07-25 04:48:00,
2013-07-25 00:53:00,71.3,68.5,29.92,NNE,13,2.0,5.0,91,0.00,,,0.00,0,Wunderground v.1.15,2013-07-25 04:53:00,
2013-07-25 00:59:00,71.4,68.6,29.92,NNE,20,2.0,5.0,91,0.00,,,0.00,0,Wunderground v.1.15,2013-07-25 04:59:00,
2013-07-25 01:05:00,71.0,68.2,29.92,NNE,22,1.0,3.0,91,0.00,,,0.00,0,Wunderground v.1.15,2013-07-25 05:05:00,
2013-07-25 01:10:00,70.8,68.4,29.92,NNE,16,4.0,4.0,92,0.00,,,0.00,0,Wunderground v.1.15,2013-07-25 05:10:00,
2013-07-25 01:16:00,70.8,68.4,29.92,NNE,21,2.0,4.0,92,0.00,,,0.00,0,Wunderground v.1.15,2013-07-25 05:16:00,
2013-07-25 01:22:00,70.8,68.4,29.92,North,5,0.0,3.0,92,0.00,,,0.00,0,Wunderground v.1.15,2013-07-25 05:22:00,
2013-07-25 01:27:00,70.7,68.3,29.92,NNE,16,1.0,5.0,92,0.00,,,0.00,0,Wunderground v.1.15,2013-07-25 05:27:00,
2013-07-25 01:33:00,70.6,68.2,29.92,NNE,12,2.0,2.0,92,0.00,,,0.00,0,Wunderground v.1.15,2013-07-25 05:33:00,
2013-07-25 01:38:00,70.4,68.3,29.92,North,360,1.0,3.0,93,0.00,,,0.00,0,Wunderground v.1.15,2013-07-25 05:38:00,
2013-07-25 01:44:00,70.3,68.2,29.92,North,355,3.0,3.0,93,0.00,,,0.00,0,Wunderground v.1.15,2013-07-25 05:44:00,
2013-07-25 01:50:00,70.3,68.5,29.92,NNE,28,1.0,3.0,94,0.00,,,0.00,0,Wunderground v.1.15,2013-07-25 05:50:00,
2013-07-25 01:55:00,70.2,68.4,29.92,NNE,28,0.0,1.0,94,0.00,,,0.00,0,Wunderground v.1.15,2013-07-25 05:55:00,
2013-07-25 02:01:00,70.1,68.3,29.92,North,9,0.0,0.0,94,0.00,,,0.00,0,Wunderground v.1.15,2013-07-25 06:01:00,
2013-07-25 02:06:00,70.2,68.7,29.92,North,9,0.0,1.0,95,0.00,,,0.00,0,Wunderground v.1.15,2013-07-25 06:06:00,
2013-07-25 02:11:00,70.6,68.8,29.92,NE,56,1.0,2.0,94,0.00,,,0.00,0,Wunderground v.1.15,2013-07-25 06:11:00,
2013-07-25 02:16:00,71.0,68.9,29.92,ESE,111,1.0,3.0,93,0.00,,,0.00,0,Wunderground v.1.15,2013-07-25 06:16:00,
2013-07-25 02:21:00,71.1,68.7,29.91,ESE,121,0.0,1.0,92,0.00,,,0.00,0,Wunderground v.1.15,2013-07-25 06:21:00,
2013-07-25 02:26:00,71.6,69.2,29.91,ENE,75,1.0,3.0,92,0.00,,,0.00,0,Wunderground v.1.15,2013-07-25 06:26:00,
2013-07-25 02:32:00,71.7,68.9,29.91,North,350,0.0,3.0,91,0.00,,,0.00,0,Wunderground v.1.15,2013-07-25 06:32:00,
2013-07-25 02:37:00,70.8,68.4,29.91,NNW,332,0.0,3.0,92,0.00,,,0.00,0,Wunderground v.1.15,2013-07-25 06:37:00,
2013-07-25 02:42:00,70.3,68.2,29.91,NNW,330,0.0,0.0,93,0.00,,,0.00,0,Wunderground v.1.15,2013-07-25 06:42:00,
2013-07-25 02:47:00,70.0,68.2,29.92,NNW,333,0.0,1.0,94,0.00,,,0.00,0,Wunderground v.1.15,2013-07-25 06:47:00,
2013-07-25 02:52:00,69.9,68.4,29.92,NNW,333,0.0,0.0,95,0.00,,,0.00,0,Wunderground v.1.15,2013-07-25 06:52:00,
2013-07-25 02:57:00,69.7,68.2,29.92,NNW,333,0.0,0.0,95,0.00,,,0.00,0,Wunderground v.1.15,2013-07-25 06:57:00,
2013-07-25 03:02:00,69.5,68.0,29.92,NNW,333,0.0,0.0,95,0.00,,,0.00,0,Wunderground v.1.15,2013-07-25 07:02:00,
2013-07-25 03:07:00,69.5,68.3,29.92,NNW,333,0.0,0.0,96,0.00,,,0.00,0,Wunderground v.1.15,2013-07-25 07:07:00,
2013-07-25 03:12:00,69.5,68.3,29.92,NNW,333,0.0,0.0,96,0.00,,,0.00,0,Wunderground v.1.15,2013-07-25 07:12:00,
2013-07-25 03:17:00,69.5,68.3,29.91,NNW,333,0.0,0.0,96,0.00,,,0.00,0,Wunderground v.1.15,2013-07-25 07:17:00,
2013-07-25 03:22:00,69.4,68.2,29.91,NNW,333,0.0,0.0,96,0.00,,,0.00,0,Wunderground v.1.15,2013-07-25 07:22:00,
2013-07-25 03:27:00,69.4,68.2,29.91,NNW,333,0.0,1.0,96,0.00,,,0.00,0,Wunderground v.1.15,2013-07-25 07:27:00,
2013-07-25 03:32:00,69.3,68.1,29.91,North,360,0.0,3.0,96,0.00,,,0.00,0,Wunderground v.1.15,2013-07-25 07:32:00,
2013-07-25 03:37:00,69.3,68.1,29.91,NNE,17,1.0,4.0,96,0.00,,,0.00,0,Wunderground v.1.15,2013-07-25 07:37:00,
2013-07-25 03:42:00,69.1,67.9,29.91,NNE,17,0.0,1.0,96,0.00,,,0.00,0,Wunderground v.1.15,2013-07-25 07:42:00,
2013-07-25 03:47:00,69.0,67.5,29.90,NNE,17,0.0,2.0,95,0.00,,,0.00,0,Wunderground v.1.15,2013-07-25 07:47:00,
2013-07-25 03:52:00,68.8,67.3,29.91,North,5,2.0,3.0,95,0.00,,,0.00,0,Wunderground v.1.15,2013-07-25 07:52:00,
2013-07-25 03:57:00,68.7,67.2,29.91,West,269,0.0,3.0,95,0.00,,,0.00,0,Wunderground v.1.15,2013-07-25 07:57:00,
2013-07-25 04:02:00,68.6,67.1,29.91,North,9,2.0,3.0,95,0.00,,,0.00,0,Wunderground v.1.15,2013-07-25 08:02:00,
2013-07-25 04:07:00,68.4,66.9,29.91,North,9,0.0,3.0,95,0.00,,,0.01,0,Wunderground v.1.15,2013-07-25 08:07:00,
2013-07-25 04:12:00,68.2,66.7,29.91,NW,316,2.0,2.0,95,0.00,,,0.01,0,Wunderground v.1.15,2013-07-25 08:12:00,
2013-07-25 04:17:00,68.1,66.6,29.92,NNW,348,1.0,3.0,95,0.00,,,0.01,0,Wunderground v.1.15,2013-07-25 08:17:00,
2013-07-25 04:22:00,67.9,66.4,29.92,NNW,346,0.0,0.0,95,0.00,,,0.01,0,Wunderground v.1.15,2013-07-25 08:22:00,
2013-07-25 04:27:00,67.7,66.5,29.92,North,355,0.0,2.0,96,0.00,,,0.02,0,Wunderground v.1.15,2013-07-25 08:27:00,
2013-07-25 04:32:00,67.6,66.4,29.92,NNW,343,1.0,2.0,96,0.00,,,0.02,0,Wunderground v.1.15,2013-07-25 08:32:00,
2013-07-25 04:37:00,67.4,65.9,29.92,North,360,3.0,3.0,95,0.05,,,0.03,0,Wunderground v.1.15,2013-07-25 08:37:00,
2013-07-25 04:42:00,67.2,65.7,29.92,NNW,342,0.0,2.0,95,0.08,,,0.04,0,Wunderground v.1.15,2013-07-25 08:42:00,
2013-07-25 04:47:00,67.0,65.5,29.92,North,5,0.0,3.0,95,0.08,,,0.04,0,Wunderground v.1.15,2013-07-25 08:47:00,
2013-07-25 04:52:00,66.8,65.3,29.92,NNE,17,0.0,3.0,95,0.06,,,0.04,0,Wunderground v.1.15,2013-07-25 08:52:00,
2013-07-25 04:57:00,66.7,65.2,29.92,North,5,0.0,4.0,95,0.04,,,0.04,0,Wunderground v.1.15,2013-07-25 08:57:00,
2013-07-25 05:02:00,66.6,65.1,29.92,North,355,1.0,4.0,95,0.00,,,0.04,0,Wunderground v.1.15,2013-07-25 09:02:00,
2013-07-25 05:07:00,66.6,65.1,29.92,NNE,31,4.0,5.0,95,0.00,,,0.04,0,Wunderground v.1.15,2013-07-25 09:07:00,
2013-07-25 05:12:00,66.6,65.1,29.92,North,360,0.0,5.0,95,0.00,,,0.04,0,Wunderground v.1.15,2013-07-25 09:12:00,
2013-07-25 05:17:00,66.7,65.2,29.92,North,355,0.0,5.0,95,0.00,,,0.04,0,Wunderground v.1.15,2013-07-25 09:17:00,
2013-07-25 05:22:00,66.5,65.0,29.92,NNE,28,0.0,2.0,95,0.00,,,0.04,0,Wunderground v.1.15,2013-07-25 09:22:00,
2013-07-25 05:27:00,66.4,64.9,29.93,North,5,1.0,3.0,95,0.00,,,0.04,0,Wunderground v.1.15,2013-07-25 09:27:00,
2013-07-25 05:32:00,66.3,64.8,29.92,NNE,26,4.0,5.0,95,0.00,,,0.04,0,Wunderground v.1.15,2013-07-25 09:32:00,
2013-07-25 05:37:00,66.3,64.8,29.92,North,360,2.0,5.0,95,0.00,,,0.04,0,Wunderground v.1.15,2013-07-25 09:37:00,
2013-07-25 05:42:00,66.1,64.6,29.93,SW,236,1.0,5.0,95,0.00,,,0.04,0,Wunderground v.1.15,2013-07-25 09:42:00,
2013-07-25 05:47:00,66.0,64.5,29.93,NNW,335,3.0,5.0,95,0.00,,,0.04,0,Wunderground v.1.15,2013-07-25 09:47:00,
2013-07-25 05:52:00,65.9,64.4,29.93,North,5,2.0,4.0,95,0.00,,,0.04,0,Wunderground v.1.15,2013-07-25 09:52:00,
2013-07-25 05:57:00,65.9,64.4,29.93,North,5,2.0,5.0,95,0.00,,,0.04,0,Wunderground v.1.15,2013-07-25 09:57:00,
2013-07-25 06:02:00,65.9,64.4,29.93,NNE,16,3.0,4.0,95,0.00,,,0.04,0,Wunderground v.1.15,2013-07-25 10:02:00,
2013-07-25 06:07:00,65.9,64.4,29.93,NNE,13,2.0,5.0,95,0.00,,,0.04,0,Wunderground v.1.15,2013-07-25 10:07:00,
2013-07-25 06:12:00,65.9,64.4,29.93,North,5,1.0,6.0,95,0.00,,,0.04,0,Wunderground v.1.15,2013-07-25 10:12:00,
2013-07-25 06:17:00,65.8,64.3,29.93,North,351,2.0,6.0,95,0.00,,,0.04,0,Wunderground v.1.15,2013-07-25 10:17:00,
2013-07-25 06:22:00,65.8,64.3,29.93,NNE,26,4.0,6.0,95,0.00,,,0.04,0,Wunderground v.1.15,2013-07-25 10:22:00,
2013-07-25 06:27:00,65.8,64.3,29.93,North,355,4.0,7.0,95,0.00,,,0.04,0,Wunderground v.1.15,2013-07-25 10:27:00,
2013-07-25 06:32:00,65.8,64.3,29.93,NNE,24,5.0,7.0,95,0.00,,,0.04,0,Wunderground v.1.15,2013-07-25 10:32:00,
2013-07-25 06:37:00,65.9,64.1,29.93,NNE,17,6.0,9.0,94,0.00,,,0.04,5,Wunderground v.1.15,2013-07-25 10:37:00,
2013-07-25 06:42:00,66.3,64.5,29.93,NNW,333,0.0,8.0,94,0.00,,,0.04,7,Wunderground v.1.15,2013-07-25 10:42:00,
2013-07-25 06:47:00,66.1,64.3,29.94,NW,323,2.0,8.0,94,0.00,,,0.04,12,Wunderground v.1.15,2013-07-25 10:47:00,
2013-07-25 06:52:00,66.0,64.2,29.94,NNE,17,5.0,6.0,94,0.00,,,0.04,16,Wunderground v.1.15,2013-07-25 10:52:00,
2013-07-25 06:57:00,66.1,64.3,29.93,North,360,5.0,8.0,94,0.00,,,0.04,14,Wunderground v.1.15,2013-07-25 10:57:00,
2013-07-25 07:02:00,66.3,64.2,29.93,North,5,6.0,8.0,93,0.00,,,0.05,12,Wunderground v.1.15,2013-07-25 11:02:00,
2013-07-25 07:07:00,66.2,64.1,29.94,North,5,3.0,8.0,93,0.00,,,0.05,12,Wunderground v.1.15,2013-07-25 11:07:00,
2013-07-25 07:12:00,65.8,64.0,29.94,NNE,22,2.0,5.0,94,0.00,,,0.05,14,Wunderground v.1.15,2013-07-25 11:12:00,
2013-07-25 07:17:00,65.6,63.8,29.94,North,355,3.0,6.0,94,0.00,,,0.05,18,Wunderground v.1.15,2013-07-25 11:17:00,
2013-07-25 07:22:00,65.6,63.8,29.94,NNE,33,5.0,7.0,94,0.00,,,0.05,23,Wunderground v.1.15,2013-07-25 11:22:00,
2013-07-25 07:27:00,65.9,64.1,29.93,NNE,23,5.0,9.0,94,0.00,,,0.05,28,Wunderground v.1.15,2013-07-25 11:27:00,
2013-07-25 07:32:00,66.2,64.1,29.93,North,10,4.0,10.0,93,0.00,,,0.05,33,Wunderground v.1.15,2013-07-25 11:32:00,
2013-07-25 07:37:00,66.5,64.1,29.94,NNE,31,5.0,10.0,92,0.00,,,0.05,35,Wunderground v.1.15,2013-07-25 11:37:00,
2013-07-25 07:42:00,66.7,64.3,29.94,NNE,25,4.0,8.0,92,0.00,,,0.05,54,Wunderground v.1.15,2013-07-25 11:42:00,
2013-07-25 07:47:00,66.8,64.1,29.94,NE,37,7.0,10.0,91,0.00,,,0.05,81,Wunderground v.1.15,2013-07-25 11:47:00,
2013-07-25 07:52:00,67.2,64.2,29.94,NNE,25,6.0,10.0,90,0.00,,,0.05,100,Wunderground v.1.15,2013-07-25 11:52:00,
2013-07-25 07:57:00,67.5,64.1,29.94,NE,38,7.0,12.0,89,0.00,,,0.05,120,Wunderground v.1.15,2013-07-25 11:57:00,
2013-07-25 08:02:00,67.4,64.4,29.95,NNE,18,3.0,7.0,90,0.00,,,0.05,142,Wunderground v.1.15,2013-07-25 12:02:00,
2013-07-25 08:07:00,67.2,64.8,29.95,NNE,26,6.0,8.0,92,0.00,,,0.05,179,Wunderground v.1.15,2013-07-25 12:07:00,
2013-07-25 08:12:00,67.5,64.8,29.95,NE,35,3.0,6.0,91,0.00,,,0.05,156,Wunderground v.1.15,2013-07-25 12:12:00,
2013-07-25 08:17:00,67.7,64.3,29.96,NNE,14,8.0,8.0,89,0.00,,,0.05,135,Wunderground v.1.15,2013-07-25 12:17:00,
2013-07-25 08:22:00,67.9,64.5,29.96,NNE,31,5.0,7.0,89,0.00,,,0.05,116,Wunderground v.1.15,2013-07-25 12:22:00,
2013-07-25 08:27:00,67.8,64.4,29.97,NNE,23,2.0,8.0,89,0.00,,,0.05,116,Wunderground v.1.15,2013-07-25 12:27:00,
2013-07-25 08:33:00,67.4,64.7,29.97,NNE,19,4.0,5.0,91,0.00,,,0.05,114,Wunderground v.1.15,2013-07-25 12:33:00,
2013-07-25 08:37:00,67.3,64.6,29.98,NNE,16,4.0,7.0,91,0.00,,,0.05,74,Wunderground v.1.15,2013-07-25 12:37:00,
2013-07-25 08:42:00,67.2,64.2,29.98,NNE,22,5.0,7.0,90,0.00,,,0.05,74,Wunderground v.1.15,2013-07-25 12:42:00,
2013-07-25 08:47:00,67.5,64.5,29.98,NNE,25,5.0,7.0,90,0.00,,,0.05,134,Wunderground v.1.15,2013-07-25 12:47:00,
2013-07-25 08:53:00,67.9,64.9,29.98,NNE,17,5.0,6.0,90,0.00,,,0.05,183,Wunderground v.1.15,2013-07-25 12:53:00,
2013-07-25 08:58:00,68.2,64.8,29.98,NE,34,7.0,7.0,89,0.00,,,0.05,306,Wunderground v.1.15,2013-07-25 12:58:00,
2013-07-25 09:03:00,68.7,65.0,29.98,NNW,338,3.0,7.0,88,0.00,,,0.05,255,Wunderground v.1.15,2013-07-25 13:03:00,
2013-07-25 09:08:00,68.9,65.2,29.98,NNE,31,3.0,10.0,88,0.00,,,0.05,248,Wunderground v.1.15,2013-07-25 13:08:00,
2013-07-25 09:13:00,69.2,64.8,29.98,NNE,28,10.0,12.0,86,0.00,,,0.05,287,Wunderground v.1.15,2013-07-25 13:13:00,
2013-07-25 09:18:00,69.8,65.1,29.98,NNE,13,5.0,12.0,85,0.00,,,0.05,325,Wunderground v.1.15,2013-07-25 13:18:00,
2013-07-25 09:23:00,70.6,64.8,29.98,NE,44,7.0,12.0,82,0.00,,,0.05,647,Wunderground v.1.15,2013-07-25 13:23:00,
2013-07-25 09:28:00,71.0,64.9,29.98,NNE,33,9.0,14.0,81,0.00,,,0.05,664,Wunderground v.1.15,2013-07-25 13:28:00,
2013-07-25 09:33:00,71.2,65.1,29.98,NNE,30,5.0,13.0,81,0.00,,,0.05,334,Wunderground v.1.15,2013-07-25 13:33:00,
2013-07-25 09:38:00,70.9,64.8,29.99,North,5,5.0,13.0,81,0.00,,,0.05,357,Wunderground v.1.15,2013-07-25 13:38:00,
2013-07-25 09:43:00,71.2,65.1,29.99,North,11,3.0,14.0,81,0.00,,,0.05,436,Wunderground v.1.15,2013-07-25 13:43:00,
2013-07-25 09:48:00,71.2,64.7,29.99,NNE,21,5.0,14.0,80,0.00,,,0.05,325,Wunderground v.1.15,2013-07-25 13:48:00,
2013-07-25 09:53:00,71.3,64.4,29.99,NNE,25,9.0,12.0,79,0.00,,,0.05,360,Wunderground v.1.15,2013-07-25 13:53:00,
2013-07-25 09:58:00,71.3,64.4,29.99,NE,46,2.0,12.0,79,0.00,,,0.05,362,Wunderground v.1.15,2013-07-25 13:58:00,
2013-07-25 10:03:00,71.1,65.0,30.00,NE,37,3.0,8.0,81,0.00,,,0.05,388,Wunderground v.1.15,2013-07-25 14:03:00,
2013-07-25 10:08:00,71.0,64.2,30.00,NE,42,14.0,15.0,79,0.00,,,0.05,315,Wunderground v.1.15,2013-07-25 14:08:00,
2013-07-25 10:13:00,70.6,64.1,30.00,North,360,7.0,12.0,80,0.00,,,0.05,278,Wunderground v.1.15,2013-07-25 14:13:00,
2013-07-25 10:18:00,70.6,64.1,30.00,North,355,12.0,13.0,80,0.00,,,0.05,292,Wunderground v.1.15,2013-07-25 14:18:00,
2013-07-25 10:23:00,70.7,64.2,30.00,NE,44,11.0,14.0,80,0.00,,,0.05,343,Wunderground v.1.15,2013-07-25 14:23:00,
2013-07-25 10:28:00,70.9,64.4,30.01,North,360,4.0,14.0,80,0.00,,,0.05,325,Wunderground v.1.15,2013-07-25 14:28:00,
2013-07-25 10:33:00,70.9,64.1,30.01,NE,42,4.0,9.0,79,0.00,,,0.05,396,Wunderground v.1.15,2013-07-25 14:33:00,
2013-07-25 10:38:00,71.2,64.0,30.01,NE,44,10.0,13.0,78,0.00,,,0.05,397,Wunderground v.1.15,2013-07-25 14:38:00,
2013-07-25 10:43:00,71.3,64.4,30.01,NNE,12,6.0,9.0,79,0.00,,,0.05,446,Wunderground v.1.15,2013-07-25 14:43:00,
2013-07-25 10:48:00,71.7,65.9,30.01,NNW,339,2.0,9.0,82,0.00,,,0.05,394,Wunderground v.1.15,2013-07-25 14:48:00,
2013-07-25 10:53:00,71.8,64.6,30.01,North,5,5.0,9.0,78,0.00,,,0.05,388,Wunderground v.1.15,2013-07-25 14:53:00,
2013-07-25 10:58:00,71.5,64.3,30.02,North,11,6.0,10.0,78,0.00,,,0.05,403,Wunderground v.1.15,2013-07-25 14:58:00,
2013-07-25 11:03:00,71.1,63.9,30.02,North,349,5.0,8.0,78,0.00,,,0.05,359,Wunderground v.1.15,2013-07-25 15:03:00,
2013-07-25 11:08:00,70.8,64.0,30.02,North,11,9.0,13.0,79,0.00,,,0.05,378,Wunderground v.1.15,2013-07-25 15:08:00,
2013-07-25 11:13:00,70.8,64.7,30.02,NE,45,7.0,9.0,81,0.00,,,0.05,417,Wunderground v.1.15,2013-07-25 15:13:00,
2013-07-25 11:19:00,71.3,64.4,30.02,North,350,6.0,9.0,79,0.00,,,0.05,508,Wunderground v.1.15,2013-07-25 15:19:00,
2013-07-25 11:24:00,71.9,63.9,30.02,NNE,33,3.0,12.0,76,0.00,,,0.05,636,Wunderground v.1.15,2013-07-25 15:24:00,
2013-07-25 11:29:00,72.6,64.6,30.02,NE,36,3.0,12.0,76,0.00,,,0.05,617,Wunderground v.1.15,2013-07-25 15:29:00,
2013-07-25 11:33:00,73.4,63.8,30.02,North,355,7.0,11.0,72,0.00,,,0.05,536,Wunderground v.1.15,2013-07-25 15:33:00,
2013-07-25 11:38:00,73.0,63.4,30.02,NNE,15,7.0,14.0,72,0.00,,,0.05,520,Wunderground v.1.15,2013-07-25 15:38:00,
2013-07-25 11:43:00,73.3,64.1,30.01,NNE,24,3.0,11.0,73,0.00,,,0.05,788,Wunderground v.1.15,2013-07-25 15:43:00,
2013-07-25 11:48:00,74.0,64.8,30.01,NE,53,6.0,12.0,73,0.00,,,0.05,531,Wunderground v.1.15,2013-07-25 15:48:00,
2013-07-25 11:54:00,74.2,64.2,30.01,NNE,13,8.0,12.0,71,0.00,,,0.05,592,Wunderground v.1.15,2013-07-25 15:54:00,
2013-07-25 11:59:00,73.7,65.3,30.02,NE,42,4.0,12.0,75,0.00,,,0.05,468,Wunderground v.1.15,2013-07-25 15:59:00,
2013-07-25 12:04:00,73.4,64.6,30.02,NE,34,6.0,10.0,74,0.00,,,0.05,441,Wunderground v.1.15,2013-07-25 16:04:00,
2013-07-25 12:09:00,73.5,65.5,30.02,NE,53,3.0,10.0,76,0.00,,,0.05,986,Wunderground v.1.15,2013-07-25 16:09:00,
2013-07-25 12:14:00,74.8,66.3,30.02,NNE,15,5.0,10.0,75,0.00,,,0.05,991,Wunderground v.1.15,2013-07-25 16:14:00,
2013-07-25 12:19:00,75.3,64.8,30.02,NNE,23,7.0,10.0,70,0.00,,,0.05,1042,Wunderground v.1.15,2013-07-25 16:19:00,
2013-07-25 12:24:00,75.4,65.3,30.03,NNE,19,8.0,10.0,71,0.00,,,0.05,466,Wunderground v.1.15,2013-07-25 16:24:00,
2013-07-25 12:29:00,74.4,64.8,30.02,NW,323,4.0,11.0,72,0.00,,,0.05,408,Wunderground v.1.15,2013-07-25 16:29:00,
2013-07-25 12:34:00,74.0,66.0,30.02,North,360,4.0,9.0,76,0.00,,,0.05,434,Wunderground v.1.15,2013-07-25 16:34:00,
2013-07-25 12:39:00,74.0,66.3,30.03,NNW,348,0.0,9.0,77,0.00,,,0.05,446,Wunderground v.1.15,2013-07-25 16:39:00,
2013-07-25 12:44:00,74.2,66.1,30.02,NNW,344,5.0,7.0,76,0.00,,,0.05,417,Wunderground v.1.15,2013-07-25 16:44:00,
2013-07-25 12:49:00,73.8,65.4,30.02,NNE,28,5.0,5.0,75,0.00,,,0.05,422,Wunderground v.1.15,2013-07-25 16:49:00,
2013-07-25 12:54:00,73.9,66.2,30.02,NNW,329,2.0,9.0,77,0.00,,,0.05,547,Wunderground v.1.15,2013-07-25 16:54:00,
2013-07-25 13:00:00,75.4,64.5,30.02,NE,50,8.0,8.0,69,0.00,,,0.05,605,Wunderground v.1.15,2013-07-25 17:00:00,
2013-07-25 13:05:00,75.6,64.7,30.02,NNE,13,7.0,8.0,69,0.00,,,0.05,503,Wunderground v.1.15,2013-07-25 17:05:00,
2013-07-25 13:09:00,75.0,65.0,30.02,North,355,3.0,8.0,71,0.00,,,0.05,601,Wunderground v.1.15,2013-07-25 17:09:00,
2013-07-25 13:14:00,75.8,64.9,30.02,NNE,32,4.0,7.0,69,0.00,,,0.05,698,Wunderground v.1.15,2013-07-25 17:14:00,
2013-07-25 13:20:00,76.2,65.3,30.02,NNE,28,3.0,4.0,69,0.00,,,0.05,1062,Wunderground v.1.15,2013-07-25 17:20:00,
2013-07-25 13:24:00,76.7,65.3,30.02,NNE,28,7.0,12.0,68,0.00,,,0.05,976,Wunderground v.1.15,2013-07-25 17:24:00,
2013-07-25 13:30:00,76.4,65.5,30.02,NNE,19,6.0,6.0,69,0.00,,,0.05,916,Wunderground v.1.15,2013-07-25 17:30:00,
2013-07-25 13:35:00,77.2,67.1,30.02,NE,48,4.0,11.0,71,0.00,,,0.05,916,Wunderground v.1.15,2013-07-25 17:35:00,
2013-07-25 13:40:00,76.9,66.4,30.02,NE,38,6.0,7.0,70,0.00,,,0.05,907,Wunderground v.1.15,2013-07-25 17:40:00,
2013-07-25 13:45:00,77.2,67.5,30.02,North,360,5.0,7.0,72,0.00,,,0.05,886,Wunderground v.1.15,2013-07-25 17:45:00,
2013-07-25 13:50:00,78.1,67.1,30.01,NNE,22,7.0,8.0,69,0.00,,,0.05,954,Wunderground v.1.15,2013-07-25 17:50:00,
2013-07-25 13:55:00,78.0,65.7,30.01,NNE,21,2.0,8.0,66,0.00,,,0.05,914,Wunderground v.1.15,2013-07-25 17:55:00,
2013-07-25 14:02:00,78.3,66.9,30.01,NW,321,3.0,9.0,68,0.00,,,0.05,962,Wunderground v.1.15,2013-07-25 18:02:00,
2013-07-25 14:07:00,78.3,66.4,30.01,North,11,6.0,11.0,67,0.00,,,0.05,911,Wunderground v.1.15,2013-07-25 18:07:00,
2013-07-25 14:12:00,78.4,66.1,30.01,ENE,59,2.0,9.0,66,0.00,,,0.05,889,Wunderground v.1.15,2013-07-25 18:12:00,
2013-07-25 14:17:00,78.9,65.7,30.01,SE,130,3.0,9.0,64,0.00,,,0.05,916,Wunderground v.1.15,2013-07-25 18:17:00,
2013-07-25 14:22:00,79.7,66.0,30.01,ENE,61,5.0,11.0,63,0.00,,,0.05,935,Wunderground v.1.15,2013-07-25 18:22:00,
2013-07-25 14:27:00,79.6,65.9,30.01,ENE,64,5.0,11.0,63,0.00,,,0.05,949,Wunderground v.1.15,2013-07-25 18:27:00,
2013-07-25 14:32:00,79.3,67.0,30.01,NE,47,3.0,11.0,66,0.00,,,0.05,316,Wunderground v.1.15,2013-07-25 18:32:00,
2013-07-25 14:37:00,78.6,65.8,30.01,ENE,57,3.0,11.0,65,0.00,,,0.05,861,Wunderground v.1.15,2013-07-25 18:37:00,
2013-07-25 14:42:00,79.1,66.3,30.01,ENE,74,7.0,7.0,65,0.00,,,0.05,840,Wunderground v.1.15,2013-07-25 18:42:00,
2013-07-25 14:47:00,79.9,67.5,30.01,North,350,1.0,11.0,66,0.00,,,0.05,826,Wunderground v.1.15,2013-07-25 18:47:00,
2013-07-25 14:52:00,79.5,65.8,30.01,NNE,30,4.0,6.0,63,0.00,,,0.05,816,Wunderground v.1.15,2013-07-25 18:52:00,
2013-07-25 14:57:00,79.5,66.3,30.01,NE,51,3.0,9.0,64,0.00,,,0.05,835,Wunderground v.1.15,2013-07-25 18:57:00,
2013-07-25 15:02:00,79.5,65.8,30.01,ENE,65,2.0,7.0,63,0.00,,,0.05,828,Wunderground v.1.15,2013-07-25 19:02:00,
2013-07-25 15:07:00,80.1,66.8,30.01,North,5,4.0,10.0,64,0.00,,,0.05,875,Wunderground v.1.15,2013-07-25 19:07:00,
2013-07-25 15:12:00,79.9,68.0,30.01,North,360,2.0,4.0,67,0.00,,,0.05,290,Wunderground v.1.15,2013-07-25 19:12:00,
2013-07-25 15:17:00,78.4,66.1,30.01,NNE,15,5.0,8.0,66,0.00,,,0.05,403,Wunderground v.1.15,2013-07-25 19:17:00,
2013-07-25 15:22:00,78.5,67.9,30.01,NNE,12,5.0,5.0,70,0.00,,,0.05,919,Wunderground v.1.15,2013-07-25 19:22:00,
2013-07-25 15:27:00,79.3,69.1,30.01,North,5,1.0,8.0,71,0.00,,,0.05,612,Wunderground v.1.15,2013-07-25 19:27:00,
2013-07-25 15:32:00,78.6,67.2,30.01,North,11,3.0,9.0,68,0.00,,,0.05,462,Wunderground v.1.15,2013-07-25 19:32:00,
2013-07-25 15:37:00,78.8,66.0,30.01,NNE,18,4.0,11.0,65,0.00,,,0.05,476,Wunderground v.1.15,2013-07-25 19:37:00,
2013-07-25 15:42:00,78.5,67.9,30.01,North,9,1.0,6.0,70,0.00,,,0.05,381,Wunderground v.1.15,2013-07-25 19:42:00,
2013-07-25 15:47:00,77.9,68.5,30.01,North,5,3.0,6.0,73,0.00,,,0.05,434,Wunderground v.1.15,2013-07-25 19:47:00,
2013-07-25 15:52:00,77.9,68.1,30.01,West,271,0.0,4.0,72,0.00,,,0.05,513,Wunderground v.1.15,2013-07-25 19:52:00,
2013-07-25 15:57:00,77.4,66.8,30.01,NE,53,3.0,5.0,70,0.00,,,0.05,374,Wunderground v.1.15,2013-07-25 19:57:00,
2013-07-25 16:02:00,77.8,66.8,30.01,North,360,3.0,7.0,69,0.00,,,0.05,404,Wunderground v.1.15,2013-07-25 20:02:00,
2013-07-25 16:07:00,77.3,68.4,30.01,NNE,19,3.0,7.0,74,0.00,,,0.05,332,Wunderground v.1.15,2013-07-25 20:07:00,
2013-07-25 16:12:00,77.2,68.7,30.01,North,355,3.0,5.0,75,0.00,,,0.05,376,Wunderground v.1.15,2013-07-25 20:12:00,
2013-07-25 16:17:00,77.2,67.9,30.01,North,5,4.0,6.0,73,0.00,,,0.05,376,Wunderground v.1.15,2013-07-25 20:17:00,
2013-07-25 16:22:00,77.5,66.9,30.01,NE,42,3.0,7.0,70,0.00,,,0.05,357,Wunderground v.1.15,2013-07-25 20:22:00,
2013-07-25 16:27:00,77.7,67.5,30.01,NNE,21,6.0,7.0,71,0.00,,,0.05,355,Wunderground v.1.15,2013-07-25 20:27:00,
2013-07-25 16:32:00,77.3,67.2,30.01,North,9,2.0,5.0,71,0.00,,,0.05,415,Wunderground v.1.15,2013-07-25 20:32:00,
2013-07-25 16:37:00,77.3,67.2,30.01,NNE,27,4.0,6.0,71,0.00,,,0.05,378,Wunderground v.1.15,2013-07-25 20:37:00,
2013-07-25 16:42:00,77.7,68.0,30.02,NNE,19,4.0,5.0,72,0.00,,,0.05,385,Wunderground v.1.15,2013-07-25 20:42:00,
2013-07-25 16:47:00,78.1,67.1,30.01,NE,38,5.0,6.0,69,0.00,,,0.05,385,Wunderground v.1.15,2013-07-25 20:47:00,
2013-07-25 16:52:00,78.2,68.4,30.01,North,349,2.0,5.0,72,0.00,,,0.05,499,Wunderground v.1.15,2013-07-25 20:52:00,
2013-07-25 16:57:00,78.3,67.3,30.01,NE,51,3.0,7.0,69,0.00,,,0.05,413,Wunderground v.1.15,2013-07-25 20:57:00,
2013-07-25 17:02:00,78.5,67.9,30.02,NNE,14,3.0,5.0,70,0.00,,,0.05,536,Wunderground v.1.15,2013-07-25 21:02:00,
2013-07-25 17:07:00,78.7,67.7,30.02,NE,38,0.0,8.0,69,0.00,,,0.05,387,Wunderground v.1.15,2013-07-25 21:07:00,
2013-07-25 17:12:00,78.3,67.3,30.02,North,355,1.0,8.0,69,0.00,,,0.05,269,Wunderground v.1.15,2013-07-25 21:12:00,
2013-07-25 17:18:00,78.2,67.2,30.02,NNE,33,6.0,8.0,69,0.00,,,0.05,533,Wunderground v.1.15,2013-07-25 21:18:00,
2013-07-25 17:23:00,78.4,67.0,30.02,NNE,29,3.0,5.0,68,0.00,,,0.05,510,Wunderground v.1.15,2013-07-25 21:23:00,
2013-07-25 17:27:00,77.9,67.7,30.02,NE,35,5.0,8.0,71,0.00,,,0.05,241,Wunderground v.1.15,2013-07-25 21:27:00,
2013-07-25 17:32:00,77.2,67.5,30.02,NNE,31,4.0,4.0,72,0.00,,,0.05,162,Wunderground v.1.15,2013-07-25 21:32:00,
2013-07-25 17:38:00,76.1,67.6,30.02,NNE,14,2.0,7.0,75,0.00,,,0.05,174,Wunderground v.1.15,2013-07-25 21:38:00,
2013-07-25 17:43:00,75.8,67.3,30.02,NNW,333,0.0,4.0,75,0.00,,,0.05,181,Wunderground v.1.15,2013-07-25 21:43:00,
2013-07-25 17:48:00,75.8,68.4,30.02,NNW,344,1.0,4.0,78,0.00,,,0.05,264,Wunderground v.1.15,2013-07-25 21:48:00,
2013-07-25 17:53:00,75.9,68.2,30.02,North,355,1.0,4.0,77,0.00,,,0.05,274,Wunderground v.1.15,2013-07-25 21:53:00,
2013-07-25 17:58:00,76.2,68.1,30.02,NNE,31,1.0,6.0,76,0.00,,,0.05,322,Wunderground v.1.15,2013-07-25 21:58:00,
2013-07-25 18:03:00,76.9,69.1,30.02,NNE,22,2.0,3.0,77,0.00,,,0.05,325,Wunderground v.1.15,2013-07-25 22:03:00,
2013-07-25 18:08:00,77.1,68.6,30.02,NNE,16,1.0,3.0,75,0.00,,,0.05,295,Wunderground v.1.15,2013-07-25 22:08:00,
2013-07-25 18:13:00,77.2,67.9,30.02,NW,316,4.0,7.0,73,0.00,,,0.05,299,Wunderground v.1.15,2013-07-25 22:13:00,
2013-07-25 18:18:00,76.9,67.2,30.02,NNE,28,4.0,9.0,72,0.00,,,0.05,264,Wunderground v.1.15,2013-07-25 22:18:00,
2013-07-25 18:23:00,76.9,67.6,30.02,NNE,16,4.0,6.0,73,0.00,,,0.05,257,Wunderground v.1.15,2013-07-25 22:23:00,
2013-07-25 18:28:00,76.7,67.0,30.02,NNE,20,4.0,6.0,72,0.00,,,0.05,229,Wunderground v.1.15,2013-07-25 22:28:00,
2013-07-25 18:33:00,76.3,67.4,30.02,NNE,14,4.0,5.0,74,0.00,,,0.05,220,Wunderground v.1.15,2013-07-25 22:33:00,
2013-07-25 18:38:00,76.2,66.9,30.02,NNE,17,2.0,6.0,73,0.00,,,0.05,204,Wunderground v.1.15,2013-07-25 22:38:00,
2013-07-25 18:43:00,76.3,67.8,30.02,NNE,26,1.0,3.0,75,0.00,,,0.05,188,Wunderground v.1.15,2013-07-25 22:43:00,
2013-07-25 18:48:00,76.4,67.9,30.03,NE,44,2.0,4.0,75,0.00,,,0.05,169,Wunderground v.1.15,2013-07-25 22:48:00,
2013-07-25 18:53:00,75.8,67.7,30.03,NNE,14,2.0,4.0,76,0.00,,,0.05,149,Wunderground v.1.15,2013-07-25 22:53:00,
2013-07-25 18:58:00,75.5,67.4,30.03,NW,314,1.0,5.0,76,0.00,,,0.05,132,Wunderground v.1.15,2013-07-25 22:58:00,
2013-07-25 19:03:00,75.2,67.9,30.03,North,360,0.0,2.0,78,0.00,,,0.05,116,Wunderground v.1.15,2013-07-25 23:03:00,
2013-07-25 19:08:00,74.9,67.6,30.03,North,355,1.0,3.0,78,0.00,,,0.05,100,Wunderground v.1.15,2013-07-25 23:08:00,
2013-07-25 19:13:00,74.6,68.0,30.03,North,5,0.0,2.0,80,0.00,,,0.05,88,Wunderground v.1.15,2013-07-25 23:13:00,
2013-07-25 19:18:00,74.2,67.6,30.04,NNW,348,1.0,3.0,80,0.00,,,0.05,79,Wunderground v.1.15,2013-07-25 23:18:00,
2013-07-25 19:23:00,73.9,67.7,30.03,NNW,331,0.0,2.0,81,0.00,,,0.05,65,Wunderground v.1.15,2013-07-25 23:23:00,
2013-07-25 19:28:00,73.7,67.9,30.04,North,10,3.0,4.0,82,0.00,,,0.05,54,Wunderground v.1.15,2013-07-25 23:28:00,
2013-07-25 19:33:00,74.1,67.2,30.04,NNE,26,3.0,4.0,79,0.00,,,0.05,46,Wunderground v.1.15,2013-07-25 23:33:00,
2013-07-25 19:38:00,74.3,66.6,30.04,NNE,22,3.0,4.0,77,0.00,,,0.05,35,Wunderground v.1.15,2013-07-25 23:38:00,
2013-07-25 19:43:00,73.9,66.2,30.04,North,360,4.0,4.0,77,0.00,,,0.05,32,Wunderground v.1.15,2013-07-25 23:43:00,
2013-07-25 19:48:00,73.4,66.5,30.04,NNE,26,1.0,5.0,79,0.00,,,0.05,28,Wunderground v.1.15,2013-07-25 23:48:00,
2013-07-25 19:53:00,72.6,66.8,30.04,North,5,1.0,3.0,82,0.00,,,0.05,26,Wunderground v.1.15,2013-07-25 23:53:00,
2013-07-25 19:58:00,72.3,65.4,30.04,NW,323,0.0,4.0,79,0.00,,,0.05,23,Wunderground v.1.15,2013-07-25 23:58:00,
2013-07-25 20:03:00,71.4,65.6,30.04,North,360,3.0,5.0,82,0.00,,,0.05,19,Wunderground v.1.15,2013-07-26 00:03:00,
2013-07-25 20:08:00,71.5,65.7,30.04,North,5,2.0,5.0,82,0.00,,,0.05,16,Wunderground v.1.15,2013-07-26 00:08:00,
2013-07-25 20:13:00,71.3,65.5,30.05,North,350,0.0,3.0,82,0.00,,,0.05,12,Wunderground v.1.15,2013-07-26 00:13:00,
2013-07-25 20:18:00,71.2,65.8,30.05,NNW,346,0.0,4.0,83,0.00,,,0.05,9,Wunderground v.1.15,2013-07-26 00:18:00,
2013-07-25 20:23:00,70.5,65.4,30.05,NNW,333,0.0,4.0,84,0.00,,,0.05,5,Wunderground v.1.15,2013-07-26 00:23:00,
2013-07-25 20:29:00,69.9,65.2,30.05,NNW,345,1.0,4.0,85,0.00,,,0.05,0,Wunderground v.1.15,2013-07-26 00:29:00,
2013-07-25 20:33:00,69.4,65.0,30.05,NNW,340,1.0,2.0,86,0.00,,,0.05,0,Wunderground v.1.15,2013-07-26 00:33:00,
2013-07-25 20:38:00,68.7,65.3,30.05,NNW,340,0.0,2.0,89,0.00,,,0.05,0,Wunderground v.1.15,2013-07-26 00:38:00,
2013-07-25 20:43:00,67.9,65.2,30.05,NNW,340,0.0,0.0,91,0.00,,,0.05,0,Wunderground v.1.15,2013-07-26 00:43:00,
2013-07-25 20:48:00,67.3,64.9,30.05,NNW,340,0.0,0.0,92,0.00,,,0.05,0,Wunderground v.1.15,2013-07-26 00:48:00,
2013-07-25 20:53:00,67.2,65.1,30.05,NNW,340,0.0,0.0,93,0.00,,,0.05,0,Wunderground v.1.15,2013-07-26 00:53:00,
2013-07-25 20:58:00,67.2,65.4,30.05,NNW,340,0.0,1.0,94,0.00,,,0.05,0,Wunderground v.1.15,2013-07-26 00:58:00,
2013-07-25 21:03:00,67.1,65.3,30.05,NNW,340,0.0,0.0,94,0.00,,,0.05,0,Wunderground v.1.15,2013-07-26 01:03:00,
2013-07-25 21:08:00,66.7,64.9,30.06,NNW,340,0.0,0.0,94,0.00,,,0.05,0,Wunderground v.1.15,2013-07-26 01:08:00,
2013-07-25 21:14:00,66.5,64.7,30.06,NNW,340,0.0,0.0,94,0.00,,,0.05,0,Wunderground v.1.15,2013-07-26 01:14:00,
2013-07-25 21:18:00,66.3,64.5,30.06,NNW,340,0.0,0.0,94,0.00,,,0.05,0,Wunderground v.1.15,2013-07-26 01:18:00,
2013-07-25 21:23:00,66.1,64.6,30.06,NNW,340,0.0,0.0,95,0.00,,,0.05,0,Wunderground v.1.15,2013-07-26 01:23:00,
2013-07-25 21:28:00,66.0,64.5,30.07,NNW,340,0.0,0.0,95,0.00,,,0.05,0,Wunderground v.1.15,2013-07-26 01:28:00,
2013-07-25 21:33:00,66.0,64.5,30.06,NNW,340,0.0,0.0,95,0.00,,,0.05,0,Wunderground v.1.15,2013-07-26 01:33:00,
2013-07-25 21:38:00,65.9,64.4,30.07,NNW,340,0.0,0.0,95,0.00,,,0.05,0,Wunderground v.1.15,2013-07-26 01:38:00,
2013-07-25 21:43:00,65.9,64.4,30.07,NNW,340,0.0,0.0,95,0.00,,,0.05,0,Wunderground v.1.15,2013-07-26 01:43:00,
2013-07-25 21:48:00,65.7,64.2,30.07,NNW,340,0.0,0.0,95,0.00,,,0.05,0,Wunderground v.1.15,2013-07-26 01:48:00,
2013-07-25 21:53:00,65.3,63.8,30.07,NNW,340,0.0,0.0,95,0.00,,,0.05,0,Wunderground v.1.15,2013-07-26 01:53:00,
2013-07-25 21:58:00,65.1,63.6,30.08,NNW,340,0.0,0.0,95,0.00,,,0.05,0,Wunderground v.1.15,2013-07-26 01:58:00,
2013-07-25 22:03:00,64.8,63.3,30.08,NNW,340,0.0,0.0,95,0.00,,,0.05,0,Wunderground v.1.15,2013-07-26 02:03:00,
2013-07-25 22:09:00,64.7,63.5,30.08,NNW,340,0.0,0.0,96,0.00,,,0.05,0,Wunderground v.1.15,2013-07-26 02:09:00,
2013-07-25 22:14:00,64.6,63.4,30.08,NNW,340,0.0,0.0,96,0.00,,,0.05,0,Wunderground v.1.15,2013-07-26 02:14:00,
2013-07-25 22:19:00,64.4,63.2,30.08,NNW,340,0.0,0.0,96,0.00,,,0.05,0,Wunderground v.1.15,2013-07-26 02:19:00,
2013-07-25 22:24:00,64.6,63.4,30.08,NNW,340,0.0,1.0,96,0.00,,,0.05,0,Wunderground v.1.15,2013-07-26 02:24:00,
2013-07-25 22:29:00,64.4,63.2,30.08,NNW,340,0.0,1.0,96,0.00,,,0.05,0,Wunderground v.1.15,2013-07-26 02:29:00,
2013-07-25 22:34:00,63.9,62.7,30.08,NNW,340,0.0,0.0,96,0.00,,,0.05,0,Wunderground v.1.15,2013-07-26 02:34:00,
2013-07-25 22:39:00,63.7,62.5,30.08,NNW,340,0.0,0.0,96,0.00,,,0.05,0,Wunderground v.1.15,2013-07-26 02:39:00,
2013-07-25 22:44:00,63.8,62.6,30.08,NNW,340,0.0,0.0,96,0.00,,,0.05,0,Wunderground v.1.15,2013-07-26 02:44:00,
2013-07-25 22:49:00,63.5,62.3,30.08,NNW,340,0.0,0.0,96,0.00,,,0.05,0,Wunderground v.1.15,2013-07-26 02:49:00,
2013-07-25 22:54:00,63.3,62.1,30.08,NNW,340,0.0,0.0,96,0.00,,,0.05,0,Wunderground v.1.15,2013-07-26 02:54:00,
2013-07-25 22:59:00,63.2,62.0,30.08,NNW,340,0.0,0.0,96,0.00,,,0.05,0,Wunderground v.1.15,2013-07-26 02:59:00,
2013-07-25 23:04:00,63.5,62.6,30.09,NNW,340,0.0,0.0,97,0.00,,,0.05,0,Wunderground v.1.15,2013-07-26 03:04:00,
2013-07-25 23:10:00,63.7,62.8,30.09,NNW,340,0.0,0.0,97,0.00,,,0.05,0,Wunderground v.1.15,2013-07-26 03:10:00,
2013-07-25 23:14:00,63.8,62.9,30.09,NNW,340,0.0,0.0,97,0.00,,,0.05,0,Wunderground v.1.15,2013-07-26 03:14:00,
2013-07-25 23:19:00,63.4,62.2,30.09,NNW,340,0.0,0.0,96,0.00,,,0.05,0,Wunderground v.1.15,2013-07-26 03:19:00,
2013-07-25 23:25:00,63.3,62.1,30.09,NNW,340,0.0,0.0,96,0.00,,,0.05,0,Wunderground v.1.15,2013-07-26 03:25:00,
2013-07-25 23:29:00,63.4,62.5,30.09,NNW,340,0.0,0.0,97,0.00,,,0.05,0,Wunderground v.1.15,2013-07-26 03:29:00,
2013-07-25 23:34:00,63.3,62.4,30.09,NNW,340,0.0,0.0,97,0.00,,,0.05,0,Wunderground v.1.15,2013-07-26 03:34:00,
2013-07-25 23:40:00,62.6,61.4,30.10,NNW,340,0.0,0.0,96,0.00,,,0.05,0,Wunderground v.1.15,2013-07-26 03:40:00,
2013-07-25 23:45:00,62.7,61.8,30.09,NNW,340,0.0,0.0,97,0.00,,,0.05,0,Wunderground v.1.15,2013-07-26 03:45:00,
2013-07-25 23:50:00,62.7,61.8,30.10,NNW,340,0.0,0.0,97,0.00,,,0.05,0,Wunderground v.1.15,2013-07-26 03:50:00,
2013-07-25 23:55:00,62.9,62.0,30.10,NNW,340,0.0,0.0,97,0.00,,,0.05,0,Wunderground v.1.15,2013-07-26 03:55:00,